Time;durP1;ratioP1;P1;durP2;ratioP2;P2;SDS_P1;SDS_P2;PMS_P1;PMS_P2;Temp;Humidity;BMP_temperature;BMP_pressure;BME280_temperature;BME280_humidity;BME280_pressure;Samples;Min_cycle;Max_cycle;Signal;HPM_P1;HPM_P2
2024/03/26 00:02:15;;;;;;;4.57;1.80;;;;;;;;;;5047094;28;20021;-81
2024/03/26 00:04:42;;;;;;;6.55;1.95;;;;;;;;;;5040901;28;20029;-82
2024/03/26 00:07:08;;;;;;;4.10;1.90;;;;;;;;;;5030888;28;20030;-82
2024/03/26 00:09:34;;;;;;;3.15;1.23;;;;;;;;;;5031241;28;20037;-81
2024/03/26 00:12:00;;;;;;;2.25;1.58;;;;;;;;;;5031389;28;20128;-82
2024/03/26 00:14:26;;;;;;;3.13;1.98;;;;;;;;;;5030978;28;20067;-82
2024/03/26 00:16:52;;;;;;;1.40;0.90;;;;;;;;;;5031031;28;20033;-82
2024/03/26 00:19:18;;;;;;;2.15;1.33;;;;;;;;;;5030566;28;20025;-82
2024/03/26 00:21:44;;;;;;;0.95;0.82;;;;;;;;;;5030912;28;20026;-81
2024/03/26 00:24:10;;;;;;;1.58;0.88;;;;;;;;;;5030921;28;20025;-82
2024/03/26 00:26:36;;;;;;;1.90;0.80;;;;;;;;;;5031163;28;20039;-81
2024/03/26 00:29:03;;;;;;;1.10;0.98;;;;;;;;;;5030875;28;20411;-82
2024/03/26 00:31:33;;;;;;;1.67;1.25;;;;;;;;;;5026445;28;20617;-82
2024/03/26 00:34:00;;;;;;;1.73;1.48;;;9.60;91.20;;;;;;5022209;28;20041;-82
2024/03/26 00:36:26;;;;;;;1.87;1.00;;;9.60;92.50;;;;;;5030573;28;20014;-81
2024/03/26 00:38:52;;;;;;;4.28;0.95;;;;;;;;;;5030461;28;20036;-81
2024/03/26 00:41:18;;;;;;;0.82;0.82;;;;;;;;;;5030419;28;20021;-82
2024/03/26 00:43:44;;;;;;;4.00;1.00;;;;;;;;;;5030651;28;20057;-81
2024/03/26 00:46:10;;;;;;;2.10;1.40;;;;;;;;;;5026058;28;20049;-82
2024/03/26 00:48:36;;;;;;;5.18;1.30;;;;;;;;;;5021628;28;20026;-81
2024/03/26 00:51:02;;;;;;;1.75;1.13;;;;;;;;;;5025902;28;20014;-81
2024/03/26 00:53:28;;;;;;;1.40;1.17;;;;;;;;;;5021766;28;20129;-82
2024/03/26 00:55:54;;;;;;;1.30;0.98;;;;;;;;;;5030937;28;20159;-80
2024/03/26 00:58:20;;;;;;;1.75;0.98;;;;;;;;;;5029890;28;20035;-82
2024/03/26 01:00:47;;;;;;;1.25;0.98;;;;;;;;;;5030711;28;20021;-80
2024/03/26 01:03:13;;;;;;;2.55;1.40;;;;;;;;;;5030642;28;20030;-81
2024/03/26 01:05:39;;;;;;;1.52;0.95;;;;;;;;;;5030429;28;20029;-81
2024/03/26 01:08:05;;;;;;;1.65;0.93;;;;;;;;;;5030150;28;20025;-81
2024/03/26 01:10:31;;;;;;;1.05;0.80;;;;;;;;;;5034080;28;20396;-81
2024/03/26 01:12:58;;;;;;;1.75;1.15;;;;;;;;;;5037724;28;20037;-81
2024/03/26 01:15:24;;;;;;;1.45;0.90;;;;;;;;;;5029928;28;20045;-81
2024/03/26 01:17:50;;;;;;;4.55;1.17;;;;;;;;;;5030166;28;20041;-81
2024/03/26 01:20:16;;;;;;;2.67;1.20;;;;;;;;;;5030471;28;20013;-81
2024/03/26 01:22:42;;;;;;;3.47;1.33;;;;;;;;;;5027797;28;20075;-81
2024/03/26 01:25:08;;;;;;;3.20;1.60;;;;;;;;;;5025111;28;20083;-81
2024/03/26 01:27:35;;;;;;;2.05;1.00;;;;;;;;;;5033831;28;20436;-81
2024/03/26 01:30:01;;;;;;;1.25;0.73;;;;;;;;;;5029545;28;20045;-82
2024/03/26 01:32:27;;;;;;;3.40;1.23;;;;;;;;;;5029097;28;20041;-81
2024/03/26 01:34:53;;;;;;;5.15;1.55;;;;;;;;;;5029069;28;20028;-81
2024/03/26 01:37:19;;;;;;;5.03;1.45;;;9.40;95.00;;;;;;5029978;28;20083;-81
2024/03/26 01:39:46;;;;;;;9.40;1.17;;;;;;;;;;5029099;28;20021;-81
2024/03/26 01:42:12;;;;;;;1.98;1.58;;;;;;;;;;5029193;28;20158;-81
2024/03/26 01:44:38;;;;;;;1.95;1.52;;;;;;;;;;5028938;28;20554;-81
2024/03/26 01:47:04;;;;;;;1.83;1.38;;;9.30;96.00;;;;;;5029591;28;20056;-80
2024/03/26 01:49:32;;;;;;;1.02;0.88;;;9.30;95.60;;;;;;5028786;28;20033;-80
2024/03/26 01:51:58;;;;;;;2.55;1.17;;;;;;;;;;5029304;28;20051;-81
2024/03/26 01:54:25;;;;;;;1.75;1.20;;;;;;;;;;5029299;28;20041;-81
2024/03/26 01:56:54;;;;;;;1.00;1.00;;;9.30;96.40;;;;;;5029009;28;20021;-81
2024/03/26 01:59:20;;;;;;;1.48;0.95;;;;;;;;;;5028289;28;20298;-81
2024/03/26 02:01:46;;;;;;;1.80;1.35;;;;;;;;;;5029031;28;20083;-81
2024/03/26 02:04:12;;;;;;;3.20;1.02;;;;;;;;;;5028872;28;20026;-81
2024/03/26 02:06:38;;;;;;;2.22;0.85;;;;;;;;;;5029570;28;20053;-81
2024/03/26 02:09:04;;;;;;;1.60;1.10;;;;;;;;;;5028892;28;20060;-81
2024/03/26 02:11:31;;;;;;;6.10;1.92;;;9.10;97.80;;;;;;5029190;28;20053;-82
2024/03/26 02:13:57;;;;;;;2.03;1.50;;;;;;;;;;5029055;28;20087;-81
2024/03/26 02:16:23;;;;;;;4.45;1.55;;;;;;;;;;5028924;28;20028;-80
2024/03/26 02:18:49;;;;;;;5.25;1.75;;;;;;;;;;5029758;28;20057;-81
2024/03/26 02:21:15;;;;;;;0.73;0.68;;;;;;;;;;5024529;28;20077;-82
2024/03/26 02:23:41;;;;;;;0.85;0.73;;;;;;;;;;5028808;28;20049;-80
2024/03/26 02:26:18;;;;;;;1.42;0.98;;;9.20;97.90;;;;;;5028842;28;20061;-81
2024/03/26 02:28:45;;;;;;;1.13;0.73;;;;;;;;;;5023749;28;20064;-81
2024/03/26 02:31:11;;;;;;;3.33;1.20;;;;;;;;;;5047861;28;20107;-81
2024/03/26 02:33:37;;;;;;;1.52;1.05;;;;;;;;;;5034676;28;20463;-80
2024/03/26 02:36:03;;;;;;;4.10;1.02;;;;;;;;;;5036783;28;20029;-81
2024/03/26 02:38:29;;;;;;;1.25;0.93;;;;;;;;;;5033257;28;20025;-81
2024/03/26 02:40:55;;;;;;;4.40;1.35;;;;;;;;;;5033287;28;20026;-81
2024/03/26 02:43:21;;;;;;;3.38;1.90;;;9.10;97.90;;;;;;5033121;28;20091;-80
2024/03/26 02:45:47;;;;;;;7.43;2.15;;;;;;;;;;5033400;28;20021;-80
2024/03/26 02:48:13;;;;;;;1.40;1.30;;;;;;;;;;5032607;28;20128;-80
2024/03/26 02:50:39;;;;;;;0.90;0.85;;;;;;;;;;5033829;28;20088;-80
2024/03/26 02:53:05;;;;;;;1.13;0.90;;;;;;;;;;5032780;28;20033;-81
2024/03/26 02:55:32;;;;;;;1.20;1.10;;;;;;;;;;5033354;28;20457;-80
2024/03/26 02:57:58;;;;;;;9.02;1.40;;;;;;;;;;5020547;28;20033;-82
2024/03/26 03:00:23;;;;;;;0.98;0.82;;;;;;;;;;5033832;28;20480;-81
2024/03/26 03:02:49;;;;;;;1.50;0.90;;;;;;;;;;5033696;28;20029;-81
2024/03/26 03:05:15;;;;;;;2.58;1.20;;;;;;;;;;5033583;28;20025;-81
2024/03/26 03:07:41;;;;;;;1.33;0.75;;;;;;;;;;5020530;28;20127;-81
2024/03/26 03:10:08;;;;;;;3.65;0.98;;;;;;;;;;5032270;28;20619;-80
2024/03/26 03:12:34;;;;;;;1.75;1.00;;;;;;;;;;5031815;28;20051;-81
2024/03/26 03:15:00;;;;;;;2.25;1.10;;;;;;;;;;5032322;28;20021;-81
2024/03/26 03:17:26;;;;;;;1.98;0.80;;;;;;;;;;5038805;28;20471;-81
2024/03/26 03:19:52;;;;;;;10.88;2.85;;;;;;;;;;5038556;28;20025;-82
2024/03/26 03:22:18;;;;;;;14.07;1.48;;;;;;;;;;5032504;28;20029;-81
2024/03/26 03:24:44;;;;;;;0.70;0.70;;;;;;;;;;5032310;28;20033;-81
2024/03/26 03:27:10;;;;;;;2.30;0.70;;;;;;;;;;5032153;28;20083;-81
2024/03/26 03:29:36;;;;;;;1.63;0.93;;;;;;;;;;5028298;28;20088;-81
2024/03/26 03:32:02;;;;;;;0.77;0.70;;;;;;;;;;5031879;28;20024;-80
2024/03/26 03:34:28;;;;;;;1.15;0.80;;;;;;;;;;5031433;28;20067;-81
2024/03/26 03:36:54;;;;;;;3.72;0.90;;;;;;;;;;5030940;28;20052;-80
2024/03/26 03:39:20;;;;;;;1.08;0.98;;;;;;;;;;5031483;28;20108;-81
2024/03/26 03:41:46;;;;;;;8.48;1.55;;;;;;;;;;5031523;28;20042;-80
2024/03/26 03:44:12;;;;;;;3.83;1.48;;;;;;;;;;5031440;28;20025;-81
2024/03/26 03:46:38;;;;;;;5.93;1.80;;;;;;;;;;5031238;28;20095;-80
2024/03/26 03:49:04;;;;;;;2.42;1.70;;;;;;;;;;5031304;28;20033;-81
2024/03/26 03:51:30;;;;;;;7.03;1.20;;;;;;;;;;5026579;28;20026;-81
2024/03/26 03:53:56;;;;;;;3.90;1.52;;;;;;;;;;5025024;28;20041;-81
2024/03/26 03:56:23;;;;;;;1.00;0.65;;;;;;;;;;5031016;28;20490;-80
2024/03/26 03:58:48;;;;;;;1.83;0.80;;;;;;;;;;5031410;28;20085;-81
2024/03/26 04:01:15;;;;;;;2.20;1.20;;;;;;;;;;5031162;28;20053;-81
2024/03/26 04:03:40;;;;;;;1.98;1.15;;;;;;;;;;5031556;28;20034;-81
2024/03/26 04:06:06;;;;;;;3.33;1.60;;;;;;;;;;5031361;28;20109;-81
2024/03/26 04:08:32;;;;;;;1.13;1.00;;;;;;;;;;5031875;28;20033;-82
2024/03/26 04:11:00;;;;;;;3.03;0.98;;;9.30;99.60;;;;;;5031644;28;20551;-81
2024/03/26 04:13:26;;;;;;;2.67;0.95;;;;;;;;;;5031278;28;20484;-81
2024/03/26 04:15:52;;;;;;;5.05;1.40;;;;;;;;;;5031154;28;20021;-80
2024/03/26 04:18:18;;;;;;;1.90;1.13;;;;;;;;;;5031165;28;20036;-81
2024/03/26 04:20:44;;;;;;;4.13;1.10;;;;;;;;;;5018410;28;20100;-81
2024/03/26 04:23:10;;;;;;;1.08;0.98;;;;;;;;;;5031666;28;20108;-81
2024/03/26 04:25:36;;;;;;;3.17;1.40;;;;;;;;;;5018408;28;20546;-81
2024/03/26 04:28:02;;;;;;;1.88;1.20;;;;;;;;;;5031168;28;20030;-81
2024/03/26 04:30:28;;;;;;;2.55;1.20;;;;;;;;;;5031216;28;20496;-80
2024/03/26 04:32:54;;;;;;;1.65;1.55;;;;;;;;;;5030666;28;20052;-84
2024/03/26 04:35:20;;;;;;;6.95;2.28;;;;;;;;;;5030620;28;20018;-81
2024/03/26 04:37:47;;;;;;;6.77;1.70;;;;;;;;;;5030547;28;20033;-81
2024/03/26 04:40:13;;;;;;;2.25;1.13;;;;;;;;;;5030484;28;20480;-81
2024/03/26 04:42:39;;;;;;;2.30;0.93;;;;;;;;;;5030517;28;20112;-80
2024/03/26 04:45:05;;;;;;;4.32;1.23;;;;;;;;;;5030541;28;20053;-81
2024/03/26 04:47:31;;;;;;;1.10;0.98;;;;;;;;;;5031592;28;20034;-81
2024/03/26 04:49:57;;;;;;;5.70;1.20;;;;;;;;;;5031743;28;20514;-81
2024/03/26 04:52:23;;;;;;;1.70;1.60;;;;;;;;;;5031141;28;20034;-81
2024/03/26 04:54:49;;;;;;;2.90;1.23;;;;;;;;;;5030335;28;20065;-81
2024/03/26 04:57:15;;;;;;;2.38;1.23;;;;;;;;;;5030684;28;20096;-81
2024/03/26 04:59:41;;;;;;;2.30;2.10;;;;;;;;;;5029727;28;20017;-80
2024/03/26 05:02:07;;;;;;;4.32;1.85;;;;;;;;;;5030418;28;20025;-81
2024/03/26 05:04:34;;;;;;;3.53;1.58;;;;;;;;;;5030142;28;20021;-81
2024/03/26 05:07:00;;;;;;;2.92;1.40;;;;;;;;;;5030129;28;20029;-82
2024/03/26 05:09:26;;;;;;;14.43;1.85;;;;;;;;;;5029704;28;20033;-81
2024/03/26 05:11:52;;;;;;;7.85;2.13;;;;;;;;;;5030337;28;20052;-80
2024/03/26 05:14:18;;;;;;;1.52;1.27;;;;;;;;;;5029642;28;20064;-81
2024/03/26 05:16:44;;;;;;;4.00;1.63;;;;;;;;;;5029835;28;20053;-80
2024/03/26 05:19:10;;;;;;;11.27;3.40;;;;;;;;;;5037542;28;20109;-81
2024/03/26 05:21:36;;;;;;;5.70;3.63;;;;;;;;;;5038405;28;20100;-81
2024/03/26 05:24:02;;;;;;;8.85;2.15;;;;;;;;;;5029471;28;20021;-81
2024/03/26 05:26:28;;;;;;;4.45;2.83;;;;;;;;;;5029174;28;20071;-81
2024/03/26 05:28:54;;;;;;;6.18;1.75;;;;;;;;;;5029514;28;20126;-81
2024/03/26 05:31:21;;;;;;;4.07;1.77;;;;;;;;;;5042905;28;20024;-81
2024/03/26 05:33:47;;;;;;;4.18;1.95;;;9.00;99.90;;;;;;5037422;28;20135;-82
2024/03/26 05:36:14;;;;;;;6.23;2.37;;;;;;;;;;5028793;28;20646;-82
2024/03/26 05:38:40;;;;;;;2.15;1.50;;;;;;;;;;5037364;28;20048;-81
2024/03/26 05:41:06;;;;;;;3.38;2.03;;;;;;;;;;5047961;28;20064;-82
2024/03/26 05:43:32;;;;;;;16.60;2.65;;;;;;;;;;5047639;28;20462;-81
2024/03/26 05:45:58;;;;;;;6.75;3.35;;;;;;;;;;5047748;28;20391;-81
2024/03/26 05:48:25;;;;;;;2.95;2.25;;;;;;;;;;5048804;28;20033;-81
2024/03/26 05:50:52;;;;;;;2.35;2.03;;;9.00;99.90;;;;;;5048045;28;20028;-81
2024/03/26 05:53:18;;;;;;;9.40;2.38;;;;;;;;;;5048493;28;20036;-82
2024/03/26 05:55:44;;;;;;;5.05;1.70;;;;;;;;;;5048124;28;20542;-81
2024/03/26 05:58:10;;;;;;;2.72;2.28;;;;;;;;;;5048951;28;20040;-82
2024/03/26 06:00:36;;;;;;;4.43;2.70;;;;;;;;;;5047760;28;20065;-81
2024/03/26 06:03:02;;;;;;;2.67;2.22;;;;;;;;;;5034239;28;20124;-81
2024/03/26 06:05:28;;;;;;;4.07;2.38;;;;;;;;;;5028625;28;20028;-81
2024/03/26 06:07:54;;;;;;;3.00;1.95;;;;;;;;;;5029546;28;20030;-81
2024/03/26 06:10:20;;;;;;;3.47;2.38;;;;;;;;;;5028789;28;20388;-81
2024/03/26 06:12:46;;;;;;;5.03;1.75;;;;;;;;;;5036623;28;20045;-81
2024/03/26 06:15:12;;;;;;;3.78;1.55;;;;;;;;;;5033837;28;20571;-81
2024/03/26 06:17:39;;;;;;;10.63;2.13;;;;;;;;;;5029374;28;20160;-82
2024/03/26 06:20:08;;;;;;;9.80;2.30;;;9.60;99.90;;;;;;5035586;28;20022;-81
2024/03/26 06:22:34;;;;;;;9.52;2.97;;;;;;;;;;5044322;28;20045;-81
2024/03/26 06:25:00;;;;;;;3.10;2.80;;;;;;;;;;5031237;28;20396;-79
2024/03/26 06:27:26;;;;;;;3.67;1.95;;;;;;;;;;5029699;28;20029;-78
2024/03/26 06:29:53;;;;;;;3.55;1.38;;;10.70;99.50;;;;;;5032882;28;20167;-79
2024/03/26 06:32:19;;;;;;;2.83;1.83;;;;;;;;;;5027338;28;20041;-78
2024/03/26 06:34:45;;;;;;;2.05;1.80;;;;;;;;;;5042072;28;20037;-79
2024/03/26 06:37:11;;;;;;;3.95;1.90;;;;;;;;;;5031324;28;20026;-79
2024/03/26 06:39:37;;;;;;;9.00;2.25;;;;;;;;;;5030389;28;20037;-78
2024/03/26 06:42:03;;;;;;;2.40;1.60;;;;;;;;;;5037484;28;20076;-79
2024/03/26 06:44:30;;;;;;;8.32;2.10;;;;;;;;;;5033149;28;20450;-77
2024/03/26 06:46:56;;;;;;;3.47;2.40;;;;;;;;;;5029098;28;20041;-83
2024/03/26 06:49:22;;;;;;;2.60;1.90;;;10.60;98.90;;;;;;5026448;28;20585;-84
2024/03/26 06:51:48;;;;;;;1.63;1.38;;;;;;;;;;5035991;28;20044;-84
2024/03/26 06:54:14;;;;;;;7.75;1.75;;;;;;;;;;5045362;28;20037;-83
2024/03/26 06:56:40;;;;;;;1.45;1.13;;;;;;;;;;5038958;28;20036;-83
2024/03/26 06:59:06;;;;;;;5.90;1.42;;;;;;;;;;5034421;28;20842;-83
2024/03/26 07:01:32;;;;;;;3.60;1.60;;;;;;;;;;5040594;28;20064;-83
2024/03/26 07:03:59;;;;;;;5.72;3.10;;;;;;;;;;5045804;28;20025;-84
2024/03/26 07:06:25;;;;;;;4.38;1.83;;;;;;;;;;5047063;28;20044;-84
2024/03/26 07:08:51;;;;;;;4.45;1.35;;;;;;;;;;5045495;28;20655;-83
2024/03/26 07:11:17;;;;;;;1.65;0.95;;;;;;;;;;5046423;28;20025;-83
2024/03/26 07:13:43;;;;;;;2.83;1.58;;;;;;;;;;5044492;28;20045;-83
2024/03/26 07:16:09;;;;;;;1.95;1.33;;;;;;;;;;5041370;28;20037;-82
2024/03/26 07:18:36;;;;;;;4.43;1.73;;;;;;;;;;5029061;28;20087;-82
2024/03/26 07:21:05;;;;;;;3.10;0.80;;;;;;;;;;5046147;28;20053;-82
2024/03/26 07:23:31;;;;;;;7.50;1.60;;;;;;;;;;5048741;28;20572;-82
2024/03/26 07:25:57;;;;;;;3.55;1.15;;;12.70;92.00;;;;;;5039018;28;20076;-82
2024/03/26 07:28:23;;;;;;;5.15;1.35;;;;;;;;;;5044241;28;20131;-81
2024/03/26 07:30:49;;;;;;;4.95;1.40;;;13.10;96.00;;;;;;5035325;28;20483;-81
2024/03/26 07:33:15;;;;;;;6.03;1.42;;;;;;;;;;5031947;28;20086;-80
2024/03/26 07:35:41;;;;;;;3.28;1.60;;;13.60;92.50;;;;;;5050198;28;20021;-82
2024/03/26 07:38:07;;;;;;;4.25;1.02;;;;;;;;;;5049623;28;20021;-81
2024/03/26 07:40:33;;;;;;;2.45;1.55;;;;;;;;;;5048404;28;20032;-82
2024/03/26 07:42:59;;;;;;;8.63;2.05;;;;;;;;;;5036239;28;20025;-82
2024/03/26 07:45:25;;;;;;;7.82;1.40;;;;;;;;;;5044390;28;20056;-81
2024/03/26 07:47:51;;;;;;;1.38;1.27;;;;;;;;;;5042732;28;20796;-81
2024/03/26 07:50:17;;;;;;;4.60;1.10;;;;;;;;;;5038051;28;20026;-81
2024/03/26 07:52:43;;;;;;;7.88;1.13;;;;;;;;;;5040173;28;20373;-80
2024/03/26 07:55:09;;;;;;;4.22;1.25;;;;;;;;;;5045408;28;20124;-81
2024/03/26 07:57:38;;;;;;;1.58;1.08;;;13.70;95.10;;;;;;5039240;28;20108;-81
2024/03/26 08:00:10;;;;;;;1.25;0.93;;;;;;;;;;5030472;28;20033;-84
2024/03/26 08:02:39;;;;;;;2.45;1.42;;;13.00;86.40;;;;;;5034080;28;20627;-84
2024/03/26 08:05:08;;;;;;;2.88;1.58;;;;;;;;;;5033729;28;20124;-81
2024/03/26 08:07:34;;;;;;;5.30;1.20;;;;;;;;;;5027522;28;20585;-85
2024/03/26 08:10:00;;;;;;;7.13;1.65;;;;;;;;;;5038438;28;20458;-81
2024/03/26 08:12:26;;;;;;;3.42;1.60;;;;;;;;;;5046472;28;20039;-80
2024/03/26 08:14:53;;;;;;;4.82;1.42;;;;;;;;;;5037462;28;20060;-80
2024/03/26 08:17:19;;;;;;;1.35;0.98;;;;;;;;;;5038744;28;20032;-81
2024/03/26 08:19:45;;;;;;;2.25;1.42;;;;;;;;;;5034247;28;20033;-82
2024/03/26 08:22:11;;;;;;;7.75;0.82;;;;;;;;;;5038715;28;20426;-80
2024/03/26 08:24:37;;;;;;;4.00;1.55;;;15.90;83.00;;;;;;5041201;28;20376;-84
2024/03/26 08:27:03;;;;;;;1.85;1.25;;;;;;;;;;5046412;28;20051;-80
2024/03/26 08:29:29;;;;;;;3.17;1.13;;;;;;;;;;5041566;28;20048;-81
2024/03/26 08:31:55;;;;;;;3.10;1.70;;;;;;;;;;5036416;28;20026;-79
2024/03/26 08:34:21;;;;;;;8.93;1.63;;;;;;;;;;5029685;28;20045;-80
2024/03/26 08:36:47;;;;;;;3.38;1.95;;;;;;;;;;5031791;28;20523;-79
2024/03/26 08:39:13;;;;;;;4.45;1.45;;;;;;;;;;5031343;28;20041;-79
2024/03/26 08:41:40;;;;;;;9.53;1.87;;;;;;;;;;5031712;28;20160;-79
2024/03/26 08:44:06;;;;;;;4.05;1.52;;;;;;;;;;5031883;28;20430;-79
2024/03/26 08:46:32;;;;;;;11.25;1.63;;;;;;;;;;5032330;28;20514;-80
2024/03/26 08:48:58;;;;;;;2.67;1.73;;;;;;;;;;5030880;28;20025;-79
2024/03/26 08:51:28;;;;;;;2.38;1.33;;;;;;;;;;5031229;28;20526;-80
2024/03/26 08:53:54;;;;;;;6.55;2.05;;;17.80;79.70;;;;;;5030464;28;20025;-80
2024/03/26 08:56:20;;;;;;;5.38;1.25;;;17.70;61.60;;;;;;5030607;28;20021;-79
2024/03/26 08:58:48;;;;;;;3.80;1.88;;;;;;;;;;5030734;28;20087;-79
2024/03/26 09:01:14;;;;;;;5.03;1.10;;;;;;;;;;5030564;28;20033;-79
2024/03/26 09:03:40;;;;;;;7.93;1.45;;;;;;;;;;5030343;28;20029;-80
2024/03/26 09:06:06;;;;;;;4.35;1.30;;;16.50;80.20;;;;;;5030527;28;20393;-79
2024/03/26 09:08:33;;;;;;;8.55;2.17;;;;;;;;;;5030260;28;20055;-80
2024/03/26 09:10:59;;;;;;;6.40;2.75;;;15.40;76.70;;;;;;5030175;28;20140;-80
2024/03/26 09:13:25;;;;;;;8.52;1.92;;;;;;;;;;5029655;28;20132;-80
2024/03/26 09:15:51;;;;;;;2.15;0.93;;;14.90;73.90;;;;;;5029882;28;20029;-80
2024/03/26 09:18:17;;;;;;;12.38;1.50;;;;;;;;;;5029448;28;20104;-80
2024/03/26 09:20:43;;;;;;;6.53;1.80;;;14.70;83.90;;;;;;5029468;28;20566;-79
2024/03/26 09:23:09;;;;;;;4.43;2.00;;;;;;;;;;5029310;28;20029;-79
2024/03/26 09:25:35;;;;;;;3.22;1.38;;;;;;;;;;5029396;28;20017;-80
2024/03/26 09:28:01;;;;;;;1.38;1.13;;;;;;;;;;5029477;28;20040;-78
2024/03/26 09:30:27;;;;;;;4.40;1.50;;;15.10;69.70;;;;;;5048948;28;20123;-79
2024/03/26 09:32:56;;;;;;;8.38;1.77;;;15.20;65.00;;;;;;5034825;28;20137;-79
2024/03/26 09:35:22;;;;;;;5.65;1.80;;;15.10;68.90;;;;;;5042032;28;20116;-79
2024/03/26 09:37:48;;;;;;;4.88;1.80;;;;;;;;;;5029275;28;20418;-80
2024/03/26 09:40:14;;;;;;;4.93;1.38;;;;;;;;;;5036206;28;20029;-79
2024/03/26 09:42:43;;;;;;;6.47;1.30;;;15.50;82.00;;;;;;5029063;28;20365;-79
2024/03/26 09:45:18;;;;;;;3.50;1.75;;;15.30;63.60;;;;;;5028877;28;20029;-79
2024/03/26 09:47:47;;;;;;;6.15;1.23;;;15.20;64.30;;;;;;5029226;28;20039;-79
2024/03/26 09:50:14;;;;;;;3.70;1.90;;;;;;;;;;5028941;28;20523;-79
2024/03/26 09:52:43;;;;;;;8.50;1.77;;;15.40;65.00;;;;;;5032170;28;20544;-80
2024/03/26 09:55:11;;;;;;;2.40;1.30;;;15.60;63.30;;;;;;5036550;28;20029;-78
2024/03/26 09:57:37;;;;;;;11.52;2.00;;;;;;;;;;5037588;28;20060;-79
2024/03/26 10:00:04;;;;;;;10.45;3.03;;;16.00;72.80;;;;;;5036348;28;20053;-79
2024/03/26 10:02:30;;;;;;;5.95;2.72;;;;;;;;;;5037609;28;20043;-80
2024/03/26 10:04:55;;;;;;;6.45;1.52;;;15.70;79.00;;;;;;5035257;28;20022;-79
2024/03/26 10:07:22;;;;;;;8.15;1.45;;;15.40;78.90;;;;;;5035994;28;20029;-80
2024/03/26 10:09:48;;;;;;;5.75;1.02;;;;;;;;;;5032566;28;20026;-79
2024/03/26 10:12:14;;;;;;;4.15;1.70;;;;;;;;;;5035984;28;20100;-77
2024/03/26 10:14:40;;;;;;;4.05;1.35;;;15.00;62.30;;;;;;5023542;28;20029;-80
2024/03/26 10:17:06;;;;;;;2.05;0.88;;;;;;;;;;5036384;28;20021;-79
2024/03/26 10:19:33;;;;;;;5.07;1.95;;;;;;;;;;5023432;28;20033;-79
2024/03/26 10:21:59;;;;;;;2.33;1.35;;;14.60;62.90;;;;;;5036286;28;20021;-80
2024/03/26 10:24:25;;;;;;;7.10;2.70;;;;;;;;;;5033221;28;20076;-80
2024/03/26 10:26:53;;;;;;;6.78;2.20;;;14.90;62.80;;;;;;5036555;28;20025;-79
2024/03/26 10:29:19;;;;;;;8.25;1.95;;;;;;;;;;5032990;28;20072;-79
2024/03/26 10:31:48;;;;;;;6.88;1.17;;;15.40;60.70;;;;;;5032339;28;20022;-80
2024/03/26 10:34:16;;;;;;;18.25;3.25;;;16.00;60.10;;;;;;5028770;28;20041;-79
2024/03/26 10:36:42;;;;;;;12.75;4.43;;;16.80;64.30;;;;;;5028154;28;20018;-80
2024/03/26 10:39:11;;;;;;;8.77;4.05;;;16.70;58.60;;;;;;5033767;28;20096;-79
2024/03/26 10:41:40;;;;;;;5.55;1.98;;;16.60;58.20;;;;;;5038402;28;20040;-79
2024/03/26 10:44:07;;;;;;;16.17;7.93;;;16.70;75.40;;;;;;5034047;28;20021;-79
2024/03/26 10:46:33;;;;;;;5.65;2.58;;;;;;;;;;5039336;28;20091;-80
2024/03/26 10:49:01;;;;;;;24.77;7.03;;;16.50;57.70;;;;;;5034083;28;20021;-79
2024/03/26 10:51:29;;;;;;;25.13;8.27;;;16.40;58.10;;;;;;5033550;28;20476;-79
2024/03/26 10:53:59;;;;;;;19.92;6.57;;;16.40;58.20;;;;;;5033566;28;20487;-79
2024/03/26 10:56:26;;;;;;;20.17;8.27;;;16.20;58.10;;;;;;5038157;28;20487;-78
2024/03/26 10:58:55;;;;;;;18.05;6.80;;;16.00;75.90;;;;;;5038336;28;20045;-79
2024/03/26 11:01:23;;;;;;;19.75;7.55;;;16.00;59.20;;;;;;5041605;28;20009;-79
2024/03/26 11:03:49;;;;;;;7.88;3.75;;;;;;;;;;5039423;28;20037;-79
2024/03/26 11:06:18;;;;;;;10.88;2.50;;;15.80;59.30;;;;;;5039237;28;20030;-79
2024/03/26 11:08:44;;;;;;;16.55;2.80;;;15.70;65.30;;;;;;5039054;28;20037;-80
2024/03/26 11:11:13;;;;;;;7.93;2.92;;;16.30;76.90;;;;;;5039152;28;20022;-80
2024/03/26 11:13:40;;;;;;;7.03;2.38;;;15.90;62.50;;;;;;5039160;28;20037;-80
2024/03/26 11:16:06;;;;;;;8.18;2.38;;;16.10;76.00;;;;;;5032910;28;20026;-79
2024/03/26 11:18:33;;;;;;;7.95;1.98;;;16.00;76.00;;;;;;5031506;28;20492;-79
2024/03/26 11:21:09;;;;;;;4.30;1.30;;;16.20;58.70;;;;;;5031652;28;20037;-80
2024/03/26 11:23:36;;;;;;;5.60;1.27;;;16.30;60.50;;;;;;5037888;28;20036;-80
2024/03/26 11:26:03;;;;;;;2.00;1.08;;;;;;;;;;5035916;28;20025;-79
2024/03/26 11:28:33;;;;;;;5.35;1.20;;;15.80;59.10;;;;;;5046503;28;20064;-79
2024/03/26 11:30:59;;;;;;;6.47;1.48;;;;;;;;;;5045687;28;20068;-79
2024/03/26 11:33:27;;;;;;;10.30;2.92;;;16.00;59.80;;;;;;5036054;28;20025;-80
2024/03/26 11:35:54;;;;;;;8.73;2.33;;;16.30;75.90;;;;;;5051661;28;20029;-82
2024/03/26 11:38:21;;;;;;;6.55;1.80;;;16.90;76.40;;;;;;5050823;28;20512;-78
2024/03/26 11:40:48;;;;;;;2.95;1.67;;;;;;;;;;5050768;28;20045;-79
2024/03/26 11:43:15;;;;;;;11.95;3.10;;;;;;;;;;5050866;28;20032;-80
2024/03/26 11:45:41;;;;;;;4.07;1.48;;;;;;;;;;5051183;28;20024;-79
2024/03/26 11:48:07;;;;;;;10.68;2.08;;;16.50;62.20;;;;;;5050485;28;20104;-79
2024/03/26 11:50:34;;;;;;;6.87;1.23;;;16.60;76.30;;;;;;5048149;28;20021;-79
2024/03/26 11:53:01;;;;;;;4.55;1.73;;;16.50;58.10;;;;;;5044625;28;20308;-79
2024/03/26 11:55:27;;;;;;;2.40;0.88;;;;;;;;;;5031062;28;20060;-80
2024/03/26 11:57:53;;;;;;;5.80;1.85;;;16.00;75.90;;;;;;5044521;28;20383;-79
2024/03/26 12:00:19;;;;;;;1.30;1.20;;;16.10;59.20;;;;;;5031324;28;20037;-79
2024/03/26 12:02:45;;;;;;;3.50;1.55;;;;;;;;;;5030999;28;20546;-79
2024/03/26 12:05:11;;;;;;;7.55;1.25;;;;;;;;;;5031403;28;20029;-79
2024/03/26 12:07:39;;;;;;;12.50;1.63;;;;;;;;;;5030208;28;20026;-79
2024/03/26 12:10:05;;;;;;;3.78;1.00;;;;;;;;;;5031254;28;20038;-79
2024/03/26 12:12:36;;;;;;;0.95;0.70;;;15.30;60.80;;;;;;5050003;28;20025;-78
2024/03/26 12:15:06;;;;;;;5.93;1.15;;;15.30;61.40;;;;;;5050198;28;20033;-79
2024/03/26 12:17:32;;;;;;;5.95;1.42;;;15.50;79.10;;;;;;5030770;28;20017;-78
2024/03/26 12:19:58;;;;;;;16.30;3.90;;;;;;;;;;5031141;28;20036;-79
2024/03/26 12:22:23;;;;;;;6.65;3.33;;;;;;;;;;5030902;28;20080;-78
2024/03/26 12:24:50;;;;;;;2.40;1.17;;;;;;;;;;5030965;28;20041;-79
2024/03/26 12:27:16;;;;;;;2.47;1.33;;;;;;;;;;5031138;28;20022;-80
2024/03/26 12:29:44;;;;;;;6.95;1.02;;;;;;;;;;5030400;28;20060;-79
2024/03/26 12:32:10;;;;;;;2.83;1.17;;;;;;;;;;5030314;28;20021;-79
2024/03/26 12:34:36;;;;;;;5.07;1.58;;;;;;;;;;5030492;28;20052;-79
2024/03/26 12:37:03;;;;;;;4.55;1.45;;;16.60;75.80;;;;;;5030274;28;20040;-79
2024/03/26 12:39:32;;;;;;;;;;;16.40;58.70;;;;;;5028068;28;20035;-79
2024/03/26 12:41:58;;;;;;;1.23;0.90;;;;;;;;;;5030383;28;19905;-80
2024/03/26 12:44:25;;;;;;;3.47;0.63;;;;;;;;;;5028210;28;20038;-79
2024/03/26 12:46:51;;;;;;;0.93;0.60;;;;;;;;;;5030741;28;20028;-79
2024/03/26 12:49:18;;;;;;;16.10;2.83;;;15.30;61.90;;;;;;5030387;28;20109;-80
2024/03/26 12:51:45;;;;;;;4.68;0.73;;;15.00;70.10;;;;;;5030229;28;20028;-80
2024/03/26 12:54:11;;;;;;;1.65;1.23;;;15.00;70.90;;;;;;5029806;28;20049;-79
2024/03/26 12:56:37;;;;;;;1.55;0.77;;;14.90;78.90;;;;;;5038415;28;20505;-79
2024/03/26 12:59:04;;;;;;;2.60;0.90;;;14.80;63.70;;;;;;5047553;28;20029;-80
2024/03/26 13:01:31;;;;;;;5.25;0.85;;;14.70;64.60;;;;;;5029847;28;20024;-79
2024/03/26 13:03:57;;;;;;;0.65;0.65;;;14.70;71.60;;;;;;5030785;28;20059;-79
2024/03/26 13:06:23;;;;;;;2.72;0.50;;;;;;;;;;5029998;28;20026;-79
2024/03/26 13:08:49;;;;;;;2.40;0.77;;;;;;;;;;5031206;28;20029;-80
2024/03/26 13:11:16;;;;;;;1.40;1.00;;;14.50;78.30;;;;;;5030556;28;20025;-80
2024/03/26 13:13:45;;;;;;;6.25;1.20;;;14.40;67.00;;;;;;5030084;28;20037;-80
2024/03/26 13:16:11;;;;;;;1.77;0.90;;;;;;;;;;5030293;28;20026;-80
2024/03/26 13:18:38;;;;;;;0.95;0.95;;;;;;;;;;5032050;28;20028;-80
2024/03/26 13:21:04;;;;;;;2.70;0.82;;;14.20;68.30;;;;;;5023964;28;20047;-79
2024/03/26 13:23:30;;;;;;;1.02;0.70;;;14.20;86.70;;;;;;5028805;28;20067;-79
2024/03/26 13:25:56;;;;;;;2.92;1.42;;;14.20;75.00;;;;;;5031101;28;20395;-79
2024/03/26 13:28:21;;;;;;;1.30;1.08;;;14.10;86.80;;;;;;5031589;28;20105;-78
2024/03/26 13:30:48;;;;;;;1.65;0.60;;;14.00;69.40;;;;;;5029459;28;20403;-80
2024/03/26 13:33:14;;;;;;;2.35;0.68;;;;;;;;;;5029881;28;20041;-80
2024/03/26 13:35:40;;;;;;;2.25;1.10;;;;;;;;;;5030070;28;20029;-79
2024/03/26 13:38:06;;;;;;;1.13;0.70;;;;;;;;;;5030293;28;20039;-79
2024/03/26 13:40:33;;;;;;;5.45;0.68;;;;;;;;;;5035351;28;20024;-79
2024/03/26 13:42:58;;;;;;;0.60;0.60;;;;;;;;;;5032537;28;20040;-78
2024/03/26 13:45:24;;;;;;;0.98;0.70;;;;;;;;;;5029394;28;20423;-79
2024/03/26 13:47:51;;;;;;;0.50;0.50;;;;;;;;;;5029530;28;20171;-79
2024/03/26 13:50:17;;;;;;;0.40;0.40;;;;;;;;;;5038334;28;20021;-79
2024/03/26 13:52:42;;;;;;;0.30;0.30;;;;;;;;;;5041736;28;20048;-79
2024/03/26 13:55:09;;;;;;;0.40;0.40;;;;;;;;;;5042803;28;20059;-80
2024/03/26 13:57:35;;;;;;;2.33;0.60;;;;;;;;;;5041312;28;20036;-79
2024/03/26 14:00:01;;;;;;;0.45;0.45;;;;;;;;;;5042105;28;20025;-79
2024/03/26 14:02:27;;;;;;;0.40;0.38;;;;;;;;;;5039271;28;20036;-79
2024/03/26 14:04:53;;;;;;;1.13;0.40;;;;;;;;;;5042615;28;20492;-79